Time;durP1;ratioP1;P1;durP2;ratioP2;P2;SDS_P1;SDS_P2;PMS_P1;PMS_P2;Temp;Humidity;BMP_temperature;BMP_pressure;BME280_temperature;BME280_humidity;BME280_pressure;Samples;Min_cycle;Max_cycle;Signal;HPM_P1;HPM_P2
2022/01/27 00:00:38;;;;;;;57.00;26.52;;;5.40;99.90;;;;;;4992855;28;20078;-63
2022/01/27 00:05:55;;;;;;;;;;;5.40;99.90;;;;;;4993402;28;20043;-63
2022/01/27 00:08:29;;;;;;;57.30;25.45;;;5.40;99.90;;;;;;4993017;28;19925;-63
2022/01/27 00:11:01;;;;;;;48.20;24.13;;;5.40;99.90;;;;;;4991651;28;20042;-64
2022/01/27 00:13:30;;;;;;;;;;;5.40;99.90;;;;;;4993162;28;20515;-63
2022/01/27 00:16:13;;;;;;;48.20;20.45;;;5.40;99.90;;;;;;4992723;28;20627;-64
2022/01/27 00:18:40;;;;;;;58.00;27.52;;;5.40;99.90;;;;;;4992803;28;20088;-63
2022/01/27 00:21:05;;;;;;;51.67;24.42;;;5.40;99.90;;;;;;4992665;28;20049;-64
2022/01/27 00:23:31;;;;;;;54.88;25.17;;;5.40;99.90;;;;;;4992390;28;20121;-65
2022/01/27 00:25:56;;;;;;;52.92;24.75;;;5.40;99.90;;;;;;4992632;28;20158;-64
2022/01/27 00:28:22;;;;;;;55.25;27.42;;;5.40;99.90;;;;;;4992255;28;20045;-64
2022/01/27 00:30:47;;;;;;;54.30;27.25;;;5.50;99.90;;;;;;4992192;28;20038;-64
2022/01/27 00:33:13;;;;;;;57.28;25.52;;;5.50;99.90;;;;;;4991656;28;20092;-64
2022/01/27 00:35:39;;;;;;;58.33;27.35;;;5.50;99.90;;;;;;4992648;28;20045;-64
2022/01/27 00:38:04;;;;;;;50.05;23.30;;;5.50;99.90;;;;;;4992439;28;20085;-64
2022/01/27 00:40:31;;;;;;;57.05;26.77;;;5.50;99.90;;;;;;4992092;28;20049;-64
2022/01/27 00:42:57;;;;;;;54.78;27.92;;;5.50;99.90;;;;;;4991895;28;20412;-64
2022/01/27 00:45:24;;;;;;;52.70;25.08;;;5.50;99.90;;;;;;4992265;28;20051;-64
2022/01/27 00:47:50;;;;;;;53.13;25.55;;;5.50;99.90;;;;;;4992070;28;20624;-65
2022/01/27 00:50:17;;;;;;;55.25;27.17;;;5.60;99.90;;;;;;4992100;28;20049;-65
2022/01/27 00:52:48;;;;;;;54.28;26.25;;;5.50;99.90;;;;;;4991782;28;20101;-64
2022/01/27 00:55:15;;;;;;;52.50;25.55;;;5.50;99.90;;;;;;4992006;28;20129;-64
2022/01/27 01:00:27;;;;;;;57.70;25.80;;;5.50;99.90;;;;;;4991816;28;20050;-64
2022/01/27 01:02:55;;;;;;;54.13;25.73;;;5.50;99.90;;;;;;4991780;28;20042;-65
2022/01/27 01:08:49;;;;;;;49.70;26.95;;;5.50;99.90;;;;;;4992042;28;20049;-65
2022/01/27 01:11:21;;;;;;;58.03;29.17;;;5.50;99.90;;;;;;4990189;28;20046;-64
2022/01/27 01:14:25;;;;;;;59.25;25.65;;;5.50;99.90;;;;;;4991349;28;20049;-64
2022/01/27 01:19:32;;;;;;;53.05;24.60;;;5.50;99.90;;;;;;4991522;28;20046;-64
2022/01/27 01:32:48;;;;;;;50.05;25.58;;;5.50;99.90;;;;;;4991118;28;20042;-65
2022/01/27 01:35:15;;;;;;;52.38;24.90;;;5.60;99.90;;;;;;4991481;28;20057;-64
2022/01/27 01:37:42;;;;;;;45.40;23.15;;;5.50;99.90;;;;;;4991306;28;20127;-65
2022/01/27 01:40:12;;;;;;;45.58;24.60;;;5.50;99.90;;;;;;4991193;28;20481;-65
2022/01/27 01:42:39;;;;;;;50.30;22.77;;;5.50;99.90;;;;;;4991100;28;20065;-64
2022/01/27 01:45:10;;;;;;;45.85;22.30;;;5.50;99.90;;;;;;4990977;28;20039;-67
2022/01/27 01:47:37;;;;;;;50.88;24.08;;;5.50;99.90;;;;;;4991308;28;20050;-65
2022/01/27 01:50:05;;;;;;;48.58;22.85;;;5.50;99.90;;;;;;4991239;28;20113;-65
2022/01/27 01:52:31;;;;;;;45.08;20.95;;;5.50;99.90;;;;;;4990957;28;20038;-65
2022/01/27 01:54:57;;;;;;;48.53;23.20;;;5.60;99.90;;;;;;4990976;28;20039;-65
2022/01/27 01:57:22;;;;;;;47.05;22.83;;;5.60;99.90;;;;;;4990856;28;20460;-64
2022/01/27 01:59:48;;;;;;;49.90;24.48;;;5.60;99.90;;;;;;4990520;28;20038;-65
2022/01/27 02:02:14;;;;;;;40.72;20.95;;;5.60;99.90;;;;;;4991147;28;20073;-65
2022/01/27 02:04:40;;;;;;;45.72;22.35;;;5.60;99.90;;;;;;4990657;28;20039;-65
2022/01/27 02:07:16;;;;;;;51.78;23.25;;;5.60;99.90;;;;;;4990889;28;20038;-65
2022/01/27 02:10:09;;;;;;;48.05;22.42;;;5.60;99.90;;;;;;4990694;28;20121;-66
2022/01/27 02:18:07;;;;;;;50.65;25.30;;;5.70;99.90;;;;;;4990713;28;20107;-65
2022/01/27 02:20:38;;;;;;;47.65;22.23;;;5.70;99.90;;;;;;4990502;28;20053;-65
2022/01/27 02:23:06;;;;;;;53.03;24.17;;;5.60;99.90;;;;;;4990723;28;20046;-64
2022/01/27 02:25:32;;;;;;;52.97;24.58;;;5.60;99.90;;;;;;4990507;28;20489;-64
2022/01/27 02:27:58;;;;;;;47.08;21.90;;;5.60;99.90;;;;;;4990616;28;20045;-64
2022/01/27 02:30:25;;;;;;;53.85;24.38;;;5.60;99.90;;;;;;4990486;28;20034;-64
2022/01/27 02:32:52;;;;;;;52.22;24.58;;;5.60;99.90;;;;;;4989210;28;20038;-64
2022/01/27 02:35:21;;;;;;;53.47;25.90;;;5.60;99.90;;;;;;4989278;28;20546;-64
2022/01/27 02:37:47;;;;;;;50.78;25.50;;;5.60;99.90;;;;;;4990436;28;20065;-64
2022/01/27 02:40:22;;;;;;;49.13;23.92;;;5.60;99.90;;;;;;4990355;28;20034;-64
2022/01/27 02:42:48;;;;;;;48.08;23.85;;;5.60;99.90;;;;;;4990307;28;20118;-64
2022/01/27 02:45:21;;;;;;;51.03;24.67;;;5.60;99.90;;;;;;4990399;28;20121;-64
2022/01/27 02:47:46;;;;;;;47.75;23.10;;;5.60;99.90;;;;;;4990029;28;20052;-64
2022/01/27 02:50:12;;;;;;;48.67;23.10;;;5.60;99.90;;;;;;4990326;28;20034;-64
2022/01/27 02:52:38;;;;;;;51.08;23.13;;;5.60;99.90;;;;;;4990417;28;20046;-64
2022/01/27 02:55:04;;;;;;;48.35;23.77;;;5.60;99.90;;;;;;4991817;28;20485;-64
2022/01/27 02:57:31;;;;;;;43.15;21.95;;;5.70;99.90;;;;;;4994251;28;20042;-64
2022/01/27 02:59:57;;;;;;;45.28;22.90;;;5.70;99.90;;;;;;4993929;28;20046;-64
2022/01/27 03:02:23;;;;;;;45.58;23.65;;;5.70;99.90;;;;;;4993862;28;20157;-64
2022/01/27 03:04:49;;;;;;;53.38;24.77;;;5.70;99.90;;;;;;4994002;28;20108;-64
2022/01/27 03:07:15;;;;;;;46.78;21.20;;;5.70;99.90;;;;;;4994083;28;20042;-64
2022/01/27 03:09:40;;;;;;;42.00;22.73;;;5.70;99.90;;;;;;4992521;28;20069;-64
2022/01/27 03:12:08;;;;;;;44.28;21.63;;;5.80;99.90;;;;;;4993985;28;20077;-64
2022/01/27 03:14:35;;;;;;;45.88;23.15;;;5.80;99.90;;;;;;4993745;28;20125;-64
2022/01/27 03:17:02;;;;;;;48.78;22.38;;;5.80;99.90;;;;;;4993614;28;20046;-64
2022/01/27 03:19:28;;;;;;;43.47;20.35;;;5.80;99.90;;;;;;4993818;28;20042;-64
2022/01/27 03:21:55;;;;;;;44.42;21.73;;;5.80;99.90;;;;;;4992556;28;20128;-64
2022/01/27 03:24:21;;;;;;;51.35;21.98;;;5.80;99.90;;;;;;4993530;28;20053;-64
2022/01/27 03:26:48;;;;;;;45.17;22.00;;;5.90;99.90;;;;;;4992363;28;20046;-64
2022/01/27 03:29:16;;;;;;;42.90;23.10;;;5.80;99.90;;;;;;4992417;28;20068;-64
2022/01/27 03:31:41;;;;;;;46.22;21.45;;;5.90;99.90;;;;;;4992164;28;20108;-64
2022/01/27 03:34:07;;;;;;;39.20;20.20;;;5.90;99.90;;;;;;4993670;28;20042;-64
2022/01/27 03:36:32;;;;;;;45.60;22.00;;;5.90;99.90;;;;;;4993593;28;20140;-64
2022/01/27 03:38:58;;;;;;;47.20;22.00;;;5.90;99.90;;;;;;4993296;28;20173;-64
2022/01/27 03:41:23;;;;;;;40.58;21.13;;;5.90;99.90;;;;;;5008443;28;20113;-64
2022/01/27 03:43:51;;;;;;;37.35;19.98;;;6.00;99.90;;;;;;4993282;28;20030;-64
2022/01/27 03:46:17;;;;;;;46.75;23.27;;;6.00;99.90;;;;;;4993220;28;20858;-64
2022/01/27 03:48:43;;;;;;;44.55;21.30;;;6.00;99.90;;;;;;4993449;28;20142;-64
2022/01/27 03:51:08;;;;;;;45.47;22.20;;;6.00;99.90;;;;;;4993246;28;20073;-64
2022/01/27 03:53:34;;;;;;;48.88;21.88;;;6.00;99.90;;;;;;4992972;28;20044;-64
2022/01/27 03:56:00;;;;;;;44.58;21.20;;;6.00;99.90;;;;;;4993287;28;20073;-64
2022/01/27 03:58:25;;;;;;;46.53;21.70;;;6.00;99.90;;;;;;4993022;28;20050;-64
2022/01/27 04:00:51;;;;;;;46.33;21.35;;;5.90;99.90;;;;;;5012239;23;20415;-64
2022/01/27 04:03:18;;;;;;;49.20;23.55;;;5.90;99.90;;;;;;5011024;28;20539;-65
2022/01/27 04:05:51;;;;;;;47.83;23.95;;;5.90;99.90;;;;;;5011880;28;20053;-65
2022/01/27 04:08:17;;;;;;;46.45;23.15;;;5.80;99.90;;;;;;5012286;28;20058;-65
2022/01/27 04:10:44;;;;;;;48.42;23.00;;;5.80;99.90;;;;;;5012390;28;20038;-65
2022/01/27 04:13:10;;;;;;;46.85;20.92;;;5.80;99.90;;;;;;5011908;28;20404;-65
2022/01/27 04:15:39;;;;;;;50.33;23.17;;;5.80;99.90;;;;;;5012566;28;20044;-65
2022/01/27 04:18:05;;;;;;;54.85;23.05;;;5.80;99.90;;;;;;5011201;28;20050;-64
2022/01/27 04:20:31;;;;;;;46.90;21.63;;;5.80;99.90;;;;;;5010783;28;20417;-65
2022/01/27 04:22:56;;;;;;;47.33;22.30;;;5.90;99.90;;;;;;5011984;28;20358;-65
2022/01/27 04:25:22;;;;;;;48.22;22.17;;;5.80;99.90;;;;;;5010878;28;20033;-65
2022/01/27 04:27:55;;;;;;;43.35;21.85;;;5.90;99.90;;;;;;5012040;28;20049;-65
2022/01/27 04:30:23;;;;;;;46.03;22.20;;;5.90;99.90;;;;;;5012049;28;20084;-65
2022/01/27 04:32:56;;;;;;;52.42;24.15;;;5.90;99.90;;;;;;5010532;28;20095;-64
2022/01/27 04:35:24;;;;;;;42.20;20.67;;;5.90;99.90;;;;;;5012021;28;20042;-64
2022/01/27 04:40:50;;;;;;;43.90;20.55;;;6.00;99.90;;;;;;5011897;28;20048;-64
2022/01/27 04:48:34;;;;;;;43.10;21.40;;;6.00;99.90;;;;;;5011832;28;20495;-65
2022/01/27 04:51:06;;;;;;;42.22;20.98;;;6.00;99.90;;;;;;5011921;28;20046;-64
2022/01/27 04:53:37;;;;;;;42.78;22.48;;;6.00;99.90;;;;;;5010132;28;20042;-64
2022/01/27 04:56:02;;;;;;;46.05;21.83;;;6.00;99.90;;;;;;5010503;28;20053;-65
2022/01/27 04:58:32;;;;;;;43.85;20.90;;;6.00;99.90;;;;;;5011711;28;20112;-64
2022/01/27 05:01:00;;;;;;;45.33;22.42;;;6.00;99.90;;;;;;5011355;28;20052;-64
2022/01/27 05:03:36;;;;;;;45.25;21.52;;;6.10;99.90;;;;;;5011052;28;20048;-64
2022/01/27 05:06:03;;;;;;;41.28;20.95;;;6.10;99.90;;;;;;5010030;28;20656;-65
2022/01/27 05:08:28;;;;;;;45.30;21.23;;;6.10;99.90;;;;;;5011458;28;20052;-64
2022/01/27 05:10:58;;;;;;;45.30;20.08;;;6.20;99.90;;;;;;5009920;28;20121;-64
2022/01/27 05:13:27;;;;;;;41.22;19.75;;;6.20;99.90;;;;;;5010270;28;20416;-63
2022/01/27 05:15:53;;;;;;;43.28;20.20;;;6.20;99.90;;;;;;5011131;28;20524;-65
2022/01/27 05:18:20;;;;;;;44.67;20.35;;;6.20;99.90;;;;;;5010979;28;20042;-65
2022/01/27 05:20:45;;;;;;;45.15;21.13;;;6.30;99.90;;;;;;5011249;28;20042;-64
2022/01/27 05:23:12;;;;;;;42.38;19.63;;;6.20;99.90;;;;;;5010967;28;20480;-65
2022/01/27 05:25:38;;;;;;;44.50;20.70;;;6.20;99.90;;;;;;5011116;28;20083;-64
2022/01/27 05:28:04;;;;;;;45.90;20.67;;;6.20;99.90;;;;;;5011040;28;20084;-64
2022/01/27 05:30:30;;;;;;;47.28;21.85;;;6.20;99.90;;;;;;5010742;28;20041;-64
2022/01/27 05:32:55;;;;;;;44.25;21.33;;;6.20;99.90;;;;;;5010846;28;20041;-64
2022/01/27 05:35:21;;;;;;;42.10;19.60;;;6.20;99.90;;;;;;5009793;28;20045;-64
2022/01/27 05:37:46;;;;;;;39.05;19.95;;;6.20;99.90;;;;;;5010890;28;20069;-64
2022/01/27 05:40:12;;;;;;;42.03;21.13;;;6.20;99.90;;;;;;5010775;28;20042;-65
2022/01/27 05:42:38;;;;;;;43.08;20.55;;;6.20;99.90;;;;;;5010498;28;20038;-64
2022/01/27 05:45:04;;;;;;;44.63;20.17;;;6.20;99.90;;;;;;5010658;28;20120;-64
2022/01/27 05:47:29;;;;;;;42.95;17.95;;;6.20;99.90;;;;;;5010781;28;20092;-64
2022/01/27 05:49:55;;;;;;;47.13;19.95;;;6.20;99.90;;;;;;5010518;28;20116;-63
2022/01/27 05:52:21;;;;;;;42.53;18.48;;;6.30;99.90;;;;;;5010600;28;20036;-65
2022/01/27 05:54:47;;;;;;;44.25;19.40;;;6.30;99.90;;;;;;5009098;28;20061;-64
2022/01/27 05:57:13;;;;;;;44.67;19.27;;;6.30;99.90;;;;;;5010682;28;20030;-64
2022/01/27 05:59:39;;;;;;;50.13;21.58;;;6.40;99.90;;;;;;5010195;28;20788;-64
2022/01/27 06:02:05;;;;;;;44.30;20.15;;;6.50;99.90;;;;;;5025890;28;20472;-64
2022/01/27 06:04:31;;;;;;;44.40;18.48;;;6.50;99.90;;;;;;5010317;28;20084;-64
2022/01/27 06:06:56;;;;;;;39.00;18.95;;;6.50;99.90;;;;;;5010277;28;20046;-64
2022/01/27 06:09:22;;;;;;;41.63;18.67;;;6.50;99.90;;;;;;5008579;28;20037;-64
2022/01/27 06:11:47;;;;;;;43.55;20.35;;;6.50;99.90;;;;;;5007510;28;20111;-63
2022/01/27 06:14:13;;;;;;;46.40;21.67;;;6.50;99.90;;;;;;5008386;28;20125;-64
2022/01/27 06:16:38;;;;;;;45.83;22.33;;;6.50;99.90;;;;;;5009547;28;20041;-65
2022/01/27 06:19:06;;;;;;;51.25;20.40;;;6.40;99.90;;;;;;5009409;28;20050;-65
2022/01/27 06:21:34;;;;;;;49.35;20.92;;;6.40;99.90;;;;;;5007809;28;20096;-64
2022/01/27 06:24:00;;;;;;;53.45;22.27;;;6.40;99.90;;;;;;5007083;28;20068;-65
2022/01/27 06:26:28;;;;;;;52.42;21.70;;;6.30;99.90;;;;;;5007622;28;20065;-65
2022/01/27 06:28:53;;;;;;;49.00;21.30;;;6.30;99.90;;;;;;5008596;28;20143;-65
2022/01/27 06:31:19;;;;;;;49.08;20.85;;;6.30;99.90;;;;;;5008709;28;20533;-64
2022/01/27 06:33:44;;;;;;;57.25;23.67;;;6.30;99.90;;;;;;5007194;28;20050;-64
2022/01/27 06:36:10;;;;;;;52.60;22.27;;;6.20;99.90;;;;;;5007313;28;20099;-64
2022/01/27 06:38:36;;;;;;;52.58;20.15;;;6.20;99.90;;;;;;5007992;28;20129;-64
2022/01/27 06:41:01;;;;;;;49.75;21.05;;;6.20;99.90;;;;;;5007282;28;20511;-63
2022/01/27 06:43:27;;;;;;;53.78;23.20;;;6.20;99.90;;;;;;5005932;28;20408;-64
2022/01/27 06:45:52;;;;;;;57.22;23.08;;;6.20;99.90;;;;;;5007439;28;20042;-64
2022/01/27 06:48:18;;;;;;;57.10;22.17;;;6.20;99.90;;;;;;5007472;28;20512;-64
2022/01/27 06:50:45;;;;;;;53.58;21.75;;;6.20;99.90;;;;;;5007266;28;20404;-64
2022/01/27 06:53:10;;;;;;;50.92;22.27;;;6.20;99.90;;;;;;5005589;28;20099;-63
2022/01/27 06:55:37;;;;;;;61.13;23.92;;;6.20;99.90;;;;;;5006985;28;20050;-64
2022/01/27 06:58:03;;;;;;;63.05;23.52;;;6.20;99.90;;;;;;5007309;28;20833;-64
2022/01/27 07:00:28;;;;;;;60.22;24.42;;;6.30;99.90;;;;;;5006044;28;20052;-64
2022/01/27 07:02:54;;;;;;;59.05;22.25;;;6.20;99.90;;;;;;5007066;28;20049;-64
2022/01/27 07:05:20;;;;;;;57.25;23.33;;;6.30;99.90;;;;;;5006845;28;20486;-64
2022/01/27 07:07:45;;;;;;;58.38;24.45;;;6.30;99.90;;;;;;5007028;28;20516;-64
2022/01/27 07:10:11;;;;;;;56.20;22.73;;;6.30;99.90;;;;;;5007279;28;20061;-64
2022/01/27 07:12:39;;;;;;;58.45;23.63;;;6.30;99.90;;;;;;5009455;28;20046;-64
2022/01/27 07:15:06;;;;;;;57.90;23.50;;;6.30;99.90;;;;;;5009531;28;20081;-63
2022/01/27 07:17:31;;;;;;;57.10;24.65;;;6.30;99.90;;;;;;5008181;28;20038;-66
2022/01/27 07:19:57;;;;;;;57.95;22.52;;;6.40;99.90;;;;;;5007800;28;20108;-64
2022/01/27 07:22:22;;;;;;;57.03;25.98;;;6.40;99.90;;;;;;5007045;28;20048;-63
2022/01/27 07:24:48;;;;;;;55.95;21.55;;;6.40;99.90;;;;;;5007805;28;20042;-65
2022/01/27 07:27:14;;;;;;;56.00;21.98;;;6.40;99.90;;;;;;5008239;28;20104;-64
2022/01/27 07:29:39;;;;;;;54.83;26.00;;;6.40;99.90;;;;;;5008243;28;20069;-65
2022/01/27 07:32:05;;;;;;;53.30;23.02;;;6.50;99.90;;;;;;5009413;28;20042;-64
2022/01/27 07:34:30;;;;;;;51.97;21.63;;;6.40;99.90;;;;;;5009476;28;20042;-64
2022/01/27 07:36:59;;;;;;;53.88;22.65;;;6.50;99.90;;;;;;5009568;28;20673;-63
2022/01/27 07:39:25;;;;;;;53.65;22.13;;;6.50;99.90;;;;;;5009217;28;20667;-64
2022/01/27 07:41:51;;;;;;;48.58;20.95;;;6.50;99.90;;;;;;5011939;28;20507;-63
2022/01/27 07:44:16;;;;;;;44.85;20.55;;;6.50;99.90;;;;;;5012905;28;20109;-63
2022/01/27 07:46:42;;;;;;;47.97;21.25;;;6.60;99.90;;;;;;5011846;28;20121;-63
2022/01/27 07:49:08;;;;;;;40.88;19.77;;;6.60;99.90;;;;;;5011178;28;20088;-63
2022/01/27 07:51:33;;;;;;;39.72;18.38;;;6.60;99.90;;;;;;5011504;28;20548;-63
2022/01/27 07:53:59;;;;;;;42.20;18.77;;;6.60;99.90;;;;;;5012029;28;20095;-64
2022/01/27 07:56:26;;;;;;;37.28;16.70;;;6.60;99.90;;;;;;5013041;28;20112;-63
2022/01/27 07:58:52;;;;;;;33.25;18.08;;;6.60;99.90;;;;;;5012564;28;20046;-63
2022/01/27 08:01:18;;;;;;;34.70;17.63;;;6.70;99.90;;;;;;5012318;28;20121;-63
2022/01/27 08:03:43;;;;;;;35.92;18.40;;;6.70;99.90;;;;;;5012422;28;20034;-63
2022/01/27 08:06:09;;;;;;;33.95;17.40;;;6.70;99.90;;;;;;5012656;28;20455;-63
2022/01/27 08:08:35;;;;;;;37.10;19.45;;;6.80;99.90;;;;;;5012254;28;20492;-63
2022/01/27 08:11:00;;;;;;;34.55;16.27;;;6.80;99.90;;;;;;5012415;28;20119;-63
2022/01/27 08:13:26;;;;;;;38.67;19.73;;;6.80;99.90;;;;;;5012282;28;20389;-63
2022/01/27 08:15:52;;;;;;;38.88;19.05;;;6.80;99.90;;;;;;5012542;28;20496;-63
2022/01/27 08:18:18;;;;;;;41.53;19.77;;;6.90;99.90;;;;;;5012250;28;20052;-63
2022/01/27 08:20:46;;;;;;;40.35;20.20;;;6.90;99.90;;;;;;5012128;28;20046;-63
2022/01/27 08:23:13;;;;;;;40.35;18.35;;;7.00;99.90;;;;;;5011808;28;20069;-63
2022/01/27 08:25:39;;;;;;;48.75;20.73;;;6.90;99.90;;;;;;5012293;28;20038;-63
2022/01/27 08:28:15;;;;;;;41.30;19.48;;;7.00;99.90;;;;;;5012505;28;20522;-63
2022/01/27 08:30:45;;;;;;;46.55;19.50;;;7.00;99.90;;;;;;5012057;28;20471;-63
2022/01/27 08:33:15;;;;;;;46.03;19.17;;;7.10;99.90;;;;;;5011885;28;20041;-63
2022/01/27 08:35:40;;;;;;;42.80;21.15;;;7.10;99.90;;;;;;5011811;28;20277;-63
2022/01/27 08:38:06;;;;;;;50.58;22.58;;;7.10;99.90;;;;;;5012284;28;20506;-63
2022/01/27 08:40:32;;;;;;;53.17;21.92;;;7.10;99.90;;;;;;5011914;28;20038;-63
2022/01/27 08:42:58;;;;;;;53.50;23.70;;;7.10;99.90;;;;;;5011591;28;20096;-63
2022/01/27 08:45:25;;;;;;;49.00;21.50;;;7.10;99.90;;;;;;5011741;28;20038;-63
2022/01/27 08:47:51;;;;;;;44.00;22.50;;;7.20;99.90;;;;;;5011793;28;20049;-63
2022/01/27 08:50:20;;;;;;;53.75;23.77;;;7.20;99.90;;;;;;5011418;28;20395;-63
2022/01/27 08:52:46;;;;;;;55.47;22.98;;;7.20;99.90;;;;;;5010801;28;20038;-63
2022/01/27 08:55:12;;;;;;;47.78;21.60;;;7.20;99.90;;;;;;5011386;28;20121;-64
2022/01/27 08:57:38;;;;;;;47.20;23.40;;;7.20;99.90;;;;;;5011562;28;20069;-63
2022/01/27 09:00:09;;;;;;;49.97;23.00;;;7.30;99.90;;;;;;5010200;28;20689;-63
2022/01/27 09:02:35;;;;;;;;;;;7.30;99.90;;;;;;5011623;28;20038;-63
2022/01/27 09:05:00;;;;;;;46.38;20.98;;;7.30;99.90;;;;;;5010994;28;19917;-63
2022/01/27 09:07:26;;;;;;;47.55;20.08;;;7.40;99.90;;;;;;5011664;28;20117;-63
2022/01/27 09:09:52;;;;;;;52.90;23.92;;;7.40;99.90;;;;;;5011286;28;20529;-64
2022/01/27 09:12:18;;;;;;;46.28;20.40;;;7.40;99.90;;;;;;5011341;28;20042;-64
2022/01/27 09:14:45;;;;;;;51.70;21.33;;;7.40;99.90;;;;;;5011032;28;20057;-64
2022/01/27 09:17:13;;;;;;;49.33;20.55;;;7.50;99.90;;;;;;5010896;28;20056;-63
2022/01/27 09:19:45;;;;;;;48.38;21.08;;;7.60;99.90;;;;;;5010794;28;20038;-63
2022/01/27 09:22:14;;;;;;;53.08;19.83;;;7.60;99.90;;;;;;5011420;28;20076;-64
2022/01/27 09:24:52;;;;;;;48.60;19.83;;;7.70;99.90;;;;;;5010902;28;20038;-63
2022/01/27 09:27:18;;;;;;;42.92;19.58;;;7.80;99.90;;;;;;5011006;28;20113;-64
2022/01/27 09:29:47;;;;;;;40.75;17.98;;;7.80;99.90;;;;;;5009460;28;20048;-63
2022/01/27 09:32:13;;;;;;;41.35;18.23;;;7.90;99.90;;;;;;5011046;28;20037;-64
2022/01/27 09:34:39;;;;;;;38.45;16.88;;;8.00;99.90;;;;;;5011065;28;20510;-64
2022/01/27 09:37:05;;;;;;;38.33;17.13;;;8.00;99.90;;;;;;5010719;28;20129;-63
2022/01/27 09:39:32;;;;;;;44.83;18.15;;;8.10;99.90;;;;;;5010742;28;20034;-64
2022/01/27 09:41:59;;;;;;;39.70;15.20;;;8.10;99.90;;;;;;5010661;28;20084;-64
2022/01/27 09:44:29;;;;;;;38.08;13.93;;;8.10;99.90;;;;;;5010459;28;20084;-63
2022/01/27 09:47:04;;;;;;;41.00;16.23;;;8.10;99.90;;;;;;5010949;28;20672;-64
2022/01/27 09:49:34;;;;;;;38.85;15.50;;;8.10;99.90;;;;;;5009353;28;20048;-64
2022/01/27 09:52:01;;;;;;;36.55;15.30;;;8.20;99.90;;;;;;5010745;28;20112;-63
2022/01/27 09:54:27;;;;;;;33.47;14.95;;;8.30;99.90;;;;;;5009171;28;20096;-64
2022/01/27 09:56:53;;;;;;;38.17;14.05;;;8.40;99.90;;;;;;5010429;28;20124;-64
2022/01/27 09:59:20;;;;;;;33.38;13.68;;;8.50;99.90;;;;;;5010329;28;20050;-64
2022/01/27 10:01:53;;;;;;;34.10;14.18;;;8.50;99.90;;;;;;5008563;28;20180;-64
2022/01/27 10:04:19;;;;;;;28.90;12.30;;;8.60;99.90;;;;;;5008056;28;20050;-65
2022/01/27 10:06:45;;;;;;;31.75;11.93;;;8.60;99.90;;;;;;5009227;28;20069;-64
2022/01/27 10:09:24;;;;;;;28.92;13.32;;;8.70;99.90;;;;;;5010352;28;20034;-64
2022/01/27 10:11:51;;;;;;;34.42;11.88;;;8.60;99.90;;;;;;5010501;28;20042;-64
2022/01/27 10:14:31;;;;;;;28.92;11.65;;;8.60;99.90;;;;;;5010243;28;20104;-63
2022/01/27 10:17:00;;;;;;;32.50;12.18;;;8.60;99.90;;;;;;5008901;28;20046;-64
2022/01/27 10:19:26;;;;;;;32.42;12.23;;;8.60;99.90;;;;;;5010183;28;20049;-63
2022/01/27 10:22:03;;;;;;;30.63;12.57;;;8.60;99.90;;;;;;5008846;28;20535;-63
2022/01/27 10:24:31;;;;;;;30.20;12.55;;;8.60;99.90;;;;;;5010099;28;20046;-64
2022/01/27 10:27:29;;;;;;;27.65;14.05;;;8.60;99.90;;;;;;5010454;28;20064;-64
2022/01/27 10:32:43;;;;;;;25.15;11.32;;;8.60;99.90;;;;;;5009816;28;20050;-64
2022/01/27 10:35:11;;;;;;;26.63;10.10;;;8.60;99.90;;;;;;5008857;28;20046;-65
2022/01/27 10:37:50;;;;;;;32.10;11.50;;;8.60;99.90;;;;;;5009512;28;20045;-63
2022/01/27 10:40:24;;;;;;;34.50;10.98;;;8.60;99.90;;;;;;5010038;28;20081;-64
2022/01/27 10:43:04;;;;;;;34.10;12.80;;;8.60;99.90;;;;;;5009560;28;20042;-63
2022/01/27 10:45:30;;;;;;;27.50;11.23;;;8.60;99.90;;;;;;5008611;28;20761;-63
2022/01/27 10:48:25;;;;;;;33.05;11.05;;;8.60;99.90;;;;;;5008775;28;20133;-63
2022/01/27 10:51:01;;;;;;;33.95;10.77;;;8.60;99.90;;;;;;5009984;28;20041;-64
2022/01/27 10:53:49;;;;;;;30.33;10.95;;;8.50;99.90;;;;;;5009893;28;20048;-63
2022/01/27 10:56:18;;;;;;;26.90;10.27;;;8.50;99.90;;;;;;5010035;28;20066;-63
2022/01/27 10:58:44;;;;;;;29.15;10.52;;;8.50;99.90;;;;;;5010090;28;20073;-62
2022/01/27 11:01:10;;;;;;;29.40;9.65;;;8.40;99.90;;;;;;5009739;28;20049;-63
2022/01/27 11:03:36;;;;;;;30.58;11.70;;;8.40;99.90;;;;;;5009427;28;20042;-65
2022/01/27 11:06:10;;;;;;;27.77;10.65;;;8.40;99.90;;;;;;5009648;28;20445;-64
2022/01/27 11:08:39;;;;;;;34.53;10.63;;;8.30;99.90;;;;;;5010081;28;20042;-64
2022/01/27 11:11:05;;;;;;;32.78;10.15;;;8.40;99.90;;;;;;5009781;28;20057;-65
2022/01/27 11:13:33;;;;;;;30.25;10.73;;;8.40;99.90;;;;;;5009414;28;20038;-65
2022/01/27 11:15:59;;;;;;;28.05;12.05;;;8.40;99.90;;;;;;5010943;28;20045;-65
2022/01/27 11:18:27;;;;;;;30.52;10.95;;;8.50;99.90;;;;;;5013496;28;20046;-64
2022/01/27 11:21:00;;;;;;;27.13;9.57;;;8.50;99.90;;;;;;5013704;28;20042;-64
2022/01/27 11:26:23;;;;;;;23.67;9.75;;;8.60;99.90;;;;;;5001793;28;20608;-64
2022/01/27 11:28:49;;;;;;;28.33;10.35;;;8.60;99.90;;;;;;5013318;28;20057;-62
2022/01/27 11:31:35;;;;;;;24.58;8.90;;;8.60;99.90;;;;;;5010822;28;20045;-62
2022/01/27 11:34:03;;;;;;;27.63;8.98;;;8.70;99.90;;;;;;5010345;28;20069;-66
2022/01/27 11:36:29;;;;;;;23.25;7.70;;;8.70;99.90;;;;;;5010566;28;20049;-65
2022/01/27 11:38:57;;;;;;;22.60;7.35;;;8.70;99.90;;;;;;5010391;28;20451;-66
2022/01/27 11:41:42;;;;;;;26.67;9.50;;;8.80;99.90;;;;;;5010583;28;20052;-66
2022/01/27 11:44:32;;;;;;;27.40;7.93;;;8.90;99.90;;;;;;5008341;28;20050;-70
2022/01/27 11:47:11;;;;;;;22.58;8.77;;;9.00;99.90;;;;;;5011747;28;20125;-64
2022/01/27 11:49:53;;;;;;;22.13;8.13;;;9.00;99.90;;;;;;5010543;28;20153;-65
2022/01/27 11:52:50;;;;;;;20.50;7.97;;;9.00;99.90;;;;;;5012829;28;20072;-65
2022/01/27 11:55:24;;;;;;;19.40;8.00;;;9.10;99.90;;;;;;5012719;28;20084;-64
2022/01/27 11:57:52;;;;;;;24.30;7.65;;;9.10;99.90;;;;;;5011289;28;20037;-66
2022/01/27 12:00:24;;;;;;;25.08;7.65;;;9.20;99.90;;;;;;5012970;28;20038;-66
2022/01/27 12:03:01;;;;;;;22.50;7.00;;;9.20;99.90;;;;;;5012934;28;20046;-66
2022/01/27 12:05:41;;;;;;;23.98;6.32;;;9.20;99.90;;;;;;5012914;28;20045;-66
2022/01/27 12:08:13;;;;;;;20.98;7.03;;;9.20;99.90;;;;;;5012344;28;20049;-65
2022/01/27 12:11:11;;;;;;;22.85;6.15;;;9.30;99.90;;;;;;5012634;28;20037;-65
2022/01/27 12:13:42;;;;;;;25.67;6.80;;;9.30;99.90;;;;;;5010467;28;20081;-64
2022/01/27 12:19:03;;;;;;;17.92;4.80;;;9.50;99.90;;;;;;5010461;28;20129;-65
2022/01/27 12:21:54;;;;;;;20.80;5.18;;;9.60;99.90;;;;;;5011019;28;20041;-65
2022/01/27 12:24:24;;;;;;;18.42;4.43;;;9.60;99.90;;;;;;5010615;28;20045;-65
2022/01/27 12:26:53;;;;;;;20.63;5.10;;;9.60;99.90;;;;;;5009720;28;20742;-65
2022/01/27 12:29:29;;;;;;;18.98;4.35;;;9.60;99.90;;;;;;5011295;28;20107;-65
2022/01/27 12:31:58;;;;;;;18.25;4.60;;;9.70;99.90;;;;;;5012535;28;20042;-65
2022/01/27 12:34:26;;;;;;;17.85;4.63;;;9.70;99.90;;;;;;5010734;28;20046;-65
2022/01/27 12:37:10;;;;;;;12.25;4.32;;;9.70;99.90;;;;;;5012123;28;20061;-65
2022/01/27 12:39:53;;;;;;;18.48;4.43;;;9.70;99.90;;;;;;5010447;28;20054;-65
2022/01/27 12:42:20;;;;;;;19.75;4.13;;;9.70;99.90;;;;;;5011803;28;20045;-64
2022/01/27 12:44:53;;;;;;;12.90;4.60;;;9.70;99.90;;;;;;5010477;28;20141;-65
2022/01/27 12:47:19;;;;;;;15.73;4.28;;;9.70;99.90;;;;;;5011671;28;20040;-65
2022/01/27 12:50:03;;;;;;;14.55;3.70;;;9.70;99.90;;;;;;5011457;28;20037;-65
2022/01/27 12:52:31;;;;;;;16.50;4.00;;;9.70;99.90;;;;;;5011675;28;20069;-65
2022/01/27 12:54:57;;;;;;;18.83;4.25;;;9.80;99.90;;;;;;5011892;28;20155;-65
2022/01/27 12:57:24;;;;;;;14.38;3.85;;;9.80;99.90;;;;;;5011219;28;20137;-65
2022/01/27 12:59:52;;;;;;;18.08;3.65;;;9.90;99.90;;;;;;5011294;28;20108;-66
2022/01/27 13:02:19;;;;;;;13.27;3.35;;;9.90;99.90;;;;;;5011361;28;20088;-66
2022/01/27 13:04:45;;;;;;;15.63;3.95;;;9.90;99.90;;;;;;5011536;28;20110;-65
2022/01/27 13:07:11;;;;;;;17.38;3.65;;;9.90;99.90;;;;;;5011641;28;20073;-65
2022/01/27 13:09:39;;;;;;;15.93;3.03;;;9.90;99.90;;;;;;5010200;28;20084;-65
2022/01/27 13:12:21;;;;;;;15.40;3.90;;;9.90;99.90;;;;;;5009906;28;20037;-64
2022/01/27 13:15:13;;;;;;;10.90;2.95;;;9.90;99.90;;;;;;5010093;28;20061;-65
2022/01/27 13:20:18;;;;;;;23.48;4.07;;;9.90;99.90;;;;;;5010470;28;20128;-66
2022/01/27 13:22:53;;;;;;;20.63;3.67;;;9.90;99.90;;;;;;5008985;28;20229;-66
2022/01/27 13:25:21;;;;;;;15.23;3.08;;;9.90;99.90;;;;;;5010357;28;20077;-66
2022/01/27 13:28:20;;;;;;;14.52;3.25;;;9.90;99.90;;;;;;5010432;28;20492;-66
2022/01/27 13:30:49;;;;;;;12.90;3.35;;;9.90;99.90;;;;;;5010910;28;20494;-66
2022/01/27 13:33:16;;;;;;;14.05;3.58;;;9.90;99.90;;;;;;5010832;28;20104;-66
2022/01/27 13:35:42;;;;;;;15.05;4.18;;;9.90;99.90;;;;;;5010790;28;20518;-66